Brownfield, Texas
Current Conditions -  °F | °C
As of 10:15 PM on Thursday 27 Nov 2014 (Local Time) from KGNC Reporting Station
Clear Clear  
Wind Chill: 37°   Ceiling: Unl
Heat Index: 41°   Visibility: 10mi
Dew Point: 29°   Wind: 6mph
Humidity: 63%   Direction: 210°SSW
Pressure: 30.3"   Gusts: NA
Location:  33.18°N, 102.27°W
Report Text: KGNC 280415Z AUTO 21005KT 10SM CLR 05/M02 A3030 RMK AO2 T00481017
Loading
Personal Weather Stations






























Interactive Weather Map New forecast layout! Learn more

10-Day Weather Forecast

Advertisements
Track Severe Weather on mobile